createdAt,value
2022-10-28T00:00:21.151Z,996.43
2022-10-28T00:01:21.222Z,996.41
2022-10-28T00:02:21.142Z,996.42
2022-10-28T00:03:26.494Z,996.40
2022-10-28T00:04:20.936Z,996.37
2022-10-28T00:05:20.767Z,996.38
2022-10-28T00:06:20.686Z,996.35
2022-10-28T00:07:20.612Z,996.32
2022-10-28T00:08:20.532Z,996.32
2022-10-28T00:09:20.458Z,996.28
2022-10-28T00:10:20.380Z,996.28
2022-10-28T00:11:20.300Z,996.29
2022-10-28T00:12:20.224Z,996.28
2022-10-28T00:13:20.147Z,996.33
2022-10-28T00:14:20.068Z,996.38
2022-10-28T00:15:19.992Z,996.34
2022-10-28T00:16:19.913Z,996.38
2022-10-28T00:17:19.896Z,996.35
2022-10-28T00:18:19.778Z,996.40
2022-10-28T00:19:19.680Z,996.39
2022-10-28T00:20:19.606Z,996.38
2022-10-28T00:21:19.526Z,996.37
2022-10-28T00:22:19.450Z,996.41
2022-10-28T00:23:19.372Z,996.40
2022-10-28T00:24:19.296Z,996.38
2022-10-28T00:25:19.218Z,996.38
2022-10-28T00:26:19.195Z,996.36
2022-10-28T00:27:19.062Z,996.40
2022-10-28T00:28:18.984Z,996.39
2022-10-28T00:29:18.908Z,996.38
2022-10-28T00:30:18.878Z,996.37
2022-10-28T00:31:18.753Z,996.39
2022-10-28T00:32:18.679Z,996.39
2022-10-28T00:33:18.651Z,996.39
2022-10-28T00:34:18.546Z,996.33
2022-10-28T00:35:18.497Z,996.35
2022-10-28T00:36:18.370Z,996.34
2022-10-28T00:37:18.295Z,996.36
2022-10-28T00:38:18.214Z,996.37
2022-10-28T00:39:18.142Z,996.33
2022-10-28T00:40:18.062Z,996.35
2022-10-28T00:41:17.982Z,996.35
2022-10-28T00:42:17.907Z,996.35
2022-10-28T00:43:17.868Z,996.38
2022-10-28T00:44:17.751Z,996.40
2022-10-28T00:45:17.675Z,996.38
2022-10-28T00:46:17.596Z,996.39
2022-10-28T00:47:17.519Z,996.40
2022-10-28T00:48:17.442Z,996.45
2022-10-28T00:49:17.366Z,996.48
2022-10-28T00:50:17.311Z,996.47
2022-10-28T00:51:17.212Z,996.49
2022-10-28T00:52:17.150Z,996.52
2022-10-28T00:53:17.062Z,996.49
2022-10-28T00:54:16.985Z,996.50
2022-10-28T00:55:16.912Z,996.47
2022-10-28T00:56:16.895Z,996.47
2022-10-28T00:57:16.752Z,996.44
2022-10-28T00:58:16.672Z,996.44
2022-10-28T00:59:16.600Z,996.43
2022-10-28T01:00:16.528Z,996.41
2022-10-28T01:01:16.572Z,996.43
2022-10-28T01:02:16.544Z,996.43
2022-10-28T01:03:16.289Z,996.41
2022-10-28T01:04:16.211Z,996.37
2022-10-28T01:05:16.136Z,996.41
2022-10-28T01:06:16.083Z,996.37
2022-10-28T01:07:15.984Z,996.37
2022-10-28T01:08:15.907Z,996.39
2022-10-28T01:09:15.886Z,996.37
2022-10-28T01:10:15.753Z,996.40
2022-10-28T01:11:15.675Z,996.43
2022-10-28T01:12:15.598Z,996.40
2022-10-28T01:13:15.522Z,996.39
2022-10-28T01:14:15.447Z,996.34
2022-10-28T01:15:15.369Z,996.35
2022-10-28T01:17:42.804Z,996.34
2022-10-28T01:19:25.207Z,996.28
2022-10-28T01:20:25.140Z,996.27
2022-10-28T01:21:25.079Z,996.29
2022-10-28T01:22:25.078Z,996.29
2022-10-28T01:23:24.899Z,996.31
2022-10-28T01:24:59.453Z,996.29
2022-10-28T01:25:24.748Z,996.33
2022-10-28T01:26:24.670Z,996.35
2022-10-28T01:27:24.594Z,996.36
2022-10-28T01:28:24.517Z,996.33
2022-10-28T01:31:04.415Z,996.21
2022-10-28T01:32:04.336Z,996.27
2022-10-28T01:33:05.274Z,996.24
2022-10-28T01:36:29.942Z,996.17
2022-10-28T01:37:29.747Z,996.18
2022-10-28T01:38:29.669Z,996.14
2022-10-28T01:39:29.593Z,996.14
2022-10-28T01:40:29.516Z,996.17
2022-10-28T01:41:29.437Z,996.19
2022-10-28T01:42:29.361Z,996.20
2022-10-28T01:43:29.285Z,996.19
2022-10-28T01:44:29.208Z,996.15
2022-10-28T01:45:29.130Z,996.05
2022-10-28T01:46:29.055Z,996.00
2022-10-28T01:47:28.975Z,995.96
2022-10-28T01:48:28.944Z,996.02
2022-10-28T01:49:28.824Z,996.03
2022-10-28T01:50:28.745Z,996.10
2022-10-28T01:51:28.668Z,996.21
2022-10-28T01:52:28.613Z,996.23
2022-10-28T01:53:28.518Z,996.24
2022-10-28T01:54:28.442Z,996.24
2022-10-28T01:55:28.361Z,996.27
2022-10-28T01:56:28.285Z,996.25
2022-10-28T01:57:28.206Z,996.17
2022-10-28T01:58:28.134Z,996.22
2022-10-28T01:59:28.057Z,996.21
2022-10-28T02:00:28.038Z,996.21
2022-10-28T02:01:28.096Z,996.26
2022-10-28T02:02:27.831Z,996.23
2022-10-28T02:03:27.749Z,996.26
2022-10-28T02:04:27.674Z,996.21
2022-10-28T02:05:27.592Z,996.19
2022-10-28T02:06:27.519Z,996.14
2022-10-28T02:07:27.441Z,996.14
2022-10-28T02:08:27.381Z,996.13
2022-10-28T02:09:27.286Z,996.11
2022-10-28T02:10:27.210Z,996.15
2022-10-28T02:26:34.922Z,996.13
2022-10-28T02:27:34.827Z,996.07
2022-10-28T02:28:34.752Z,996.03
2022-10-28T02:29:34.674Z,996.01
2022-10-28T02:30:34.598Z,996.00
2022-10-28T02:31:34.521Z,995.98
2022-10-28T02:32:34.448Z,995.93
2022-10-28T02:33:34.368Z,995.90
2022-10-28T02:34:34.296Z,995.90
2022-10-28T02:35:34.215Z,995.89
2022-10-28T02:36:34.140Z,995.81
2022-10-28T02:37:34.061Z,995.83
2022-10-28T02:38:33.985Z,995.80
2022-10-28T02:39:33.959Z,995.77
2022-10-28T02:40:33.834Z,995.77
2022-10-28T02:41:33.756Z,995.78
2022-10-28T02:42:33.829Z,995.78
2022-10-28T02:43:35.018Z,995.77
2022-10-28T02:44:33.528Z,995.75
2022-10-28T02:45:36.071Z,995.77
2022-10-28T02:46:33.391Z,995.75
2022-10-28T02:47:33.299Z,995.70
2022-10-28T02:48:37.056Z,995.73
2022-10-28T02:49:33.145Z,995.72
2022-10-28T02:50:33.071Z,995.73
2022-10-28T02:51:32.992Z,995.74
2022-10-28T02:52:32.916Z,995.73
2022-10-28T02:53:32.842Z,995.73
2022-10-28T02:55:45.265Z,995.73
2022-10-28T02:56:45.186Z,995.74
2022-10-28T02:57:45.128Z,995.71
2022-10-28T02:58:45.034Z,995.72
2022-10-28T02:59:44.958Z,995.70
2022-10-28T03:00:44.938Z,995.70
2022-10-28T03:01:44.987Z,995.72
2022-10-28T03:02:44.729Z,995.71
2022-10-28T03:03:44.654Z,995.72
2022-10-28T03:04:44.577Z,995.70
2022-10-28T03:05:44.600Z,995.72
2022-10-28T03:06:44.423Z,995.73
2022-10-28T03:08:32.035Z,995.69
2022-10-28T03:09:32.312Z,995.75
2022-10-28T03:10:31.836Z,995.75
2022-10-28T03:11:31.757Z,995.78
2022-10-28T03:12:31.681Z,995.78
2022-10-28T03:13:33.337Z,995.78
2022-10-28T03:14:31.532Z,995.78
2022-10-28T03:15:31.451Z,995.74
2022-10-28T03:16:31.628Z,995.77
2022-10-28T03:17:31.301Z,995.75
2022-10-28T03:18:31.226Z,995.74
2022-10-28T03:19:31.150Z,995.71
2022-10-28T03:20:31.069Z,995.67
2022-10-28T03:21:30.993Z,995.67
2022-10-28T03:22:30.916Z,995.64
2022-10-28T03:23:30.843Z,995.68
2022-10-28T03:24:30.766Z,995.65
2022-10-28T03:25:30.691Z,995.66
2022-10-28T03:26:31.624Z,995.71
2022-10-28T03:27:30.538Z,995.68
2022-10-28T03:28:33.282Z,995.69
2022-10-28T03:29:30.401Z,995.72
2022-10-28T03:30:30.307Z,995.70
2022-10-28T03:31:30.383Z,995.67
2022-10-28T03:32:30.158Z,995.71
2022-10-28T03:33:30.081Z,995.71
2022-10-28T03:34:30.003Z,995.75
2022-10-28T04:00:05.983Z,995.42
2022-10-28T04:01:05.959Z,995.37
2022-10-28T04:02:05.988Z,995.39
2022-10-28T04:03:05.731Z,995.37
2022-10-28T04:04:05.652Z,995.34
2022-10-28T04:05:05.573Z,995.35
2022-10-28T04:06:05.501Z,995.36
2022-10-28T04:07:05.423Z,995.42
2022-10-28T04:08:05.343Z,995.45
2022-10-28T04:09:05.266Z,995.42
2022-10-28T04:10:05.443Z,995.39
2022-10-28T04:11:05.112Z,995.37
2022-10-28T04:13:04.959Z,995.32
2022-10-28T08:40:28.899Z,996.04
2022-10-28T08:41:28.805Z,996.02
2022-10-28T08:42:28.729Z,996.06
2022-10-28T08:43:40.348Z,996.05
2022-10-28T08:44:28.579Z,996.07
2022-10-28T08:45:28.504Z,996.06
2022-10-28T08:46:28.433Z,996.02
2022-10-28T08:47:28.359Z,996.04
2022-10-28T08:48:28.289Z,996.06
2022-10-28T08:49:28.210Z,996.05
2022-10-28T08:50:28.137Z,996.03
2022-10-28T08:51:28.065Z,996.04
2022-10-28T08:52:27.991Z,996.00
2022-10-28T08:53:27.917Z,996.02
2022-10-28T08:54:27.846Z,996.04
2022-10-28T08:55:27.767Z,996.03
2022-10-28T08:56:27.728Z,996.01
2022-10-28T08:57:27.621Z,995.97
2022-10-28T08:58:27.547Z,996.01
2022-10-28T08:59:27.473Z,995.99
2022-10-28T09:00:27.401Z,995.93
2022-10-28T09:01:27.563Z,995.91
2022-10-28T09:02:27.253Z,995.93
2022-10-28T09:03:27.177Z,995.98
2022-10-28T09:04:27.126Z,996.01
2022-10-28T09:05:27.034Z,996.01
2022-10-28T09:06:27.158Z,996.03
2022-10-28T09:07:26.886Z,996.04
2022-10-28T09:08:26.813Z,996.10
2022-10-28T09:09:26.739Z,996.02
2022-10-28T09:10:26.667Z,996.02
2022-10-28T09:11:27.513Z,996.03
2022-10-28T09:12:26.552Z,995.98
2022-10-28T09:13:26.494Z,995.97
2022-10-28T09:14:26.374Z,995.99
2022-10-28T09:15:26.301Z,995.98
2022-10-28T09:16:26.229Z,995.93
2022-10-28T09:17:26.153Z,995.95
2022-10-28T09:18:26.082Z,995.92
2022-10-28T09:19:26.007Z,995.99
2022-10-28T09:20:25.938Z,995.98
2022-10-28T09:21:25.859Z,995.96
2022-10-28T09:22:25.787Z,995.94
2022-10-28T09:23:25.716Z,995.94
2022-10-28T09:24:25.654Z,995.95
2022-10-28T09:25:25.572Z,995.95
2022-10-28T09:26:25.496Z,995.94
2022-10-28T09:27:25.424Z,995.96
2022-10-28T09:28:25.368Z,995.97
2022-10-28T09:29:25.278Z,995.97
2022-10-28T09:30:25.239Z,996.03
2022-10-28T09:31:25.130Z,996.03
2022-10-28T09:32:25.057Z,996.03
2022-10-28T09:33:24.981Z,996.04
2022-10-28T09:34:24.911Z,996.02
2022-10-28T09:35:24.836Z,996.02
2022-10-28T09:36:24.764Z,996.05
2022-10-28T09:37:24.689Z,996.00
2022-10-28T09:38:24.623Z,996.01
2022-10-28T09:39:26.933Z,995.99
2022-10-28T09:40:24.474Z,995.95
2022-10-28T09:41:24.398Z,995.94
2022-10-28T09:42:24.628Z,995.92
2022-10-28T09:43:24.253Z,995.92
2022-10-28T09:44:24.199Z,995.91
2022-10-28T09:45:24.104Z,995.90
2022-10-28T09:46:24.036Z,995.89
2022-10-28T09:47:23.964Z,995.92
2022-10-28T09:48:23.890Z,995.89
2022-10-28T09:49:23.817Z,995.92
2022-10-28T09:50:23.751Z,995.93
2022-10-28T09:51:23.686Z,995.86
2022-10-28T09:52:23.611Z,995.92
2022-10-28T09:53:23.524Z,995.89
2022-10-28T09:54:23.464Z,995.92
2022-10-28T09:55:23.491Z,995.87
2022-10-28T09:56:23.332Z,995.91
2022-10-28T09:57:23.341Z,995.94
2022-10-28T09:58:23.162Z,995.93
2022-10-28T09:59:23.241Z,995.98
2022-10-28T10:00:23.035Z,995.98
2022-10-28T10:01:23.001Z,995.97
2022-10-28T10:02:22.921Z,995.98
2022-10-28T10:03:22.797Z,995.98
2022-10-28T10:04:22.728Z,995.99
2022-10-28T10:05:22.653Z,995.99
2022-10-28T10:06:22.582Z,995.98
2022-10-28T10:07:22.510Z,996.00
2022-10-28T10:08:22.441Z,996.02
2022-10-28T10:09:22.363Z,996.01
2022-10-28T10:10:22.291Z,996.01
2022-10-28T10:11:22.216Z,996.02
2022-10-28T10:12:22.154Z,996.06
2022-10-28T10:13:22.079Z,996.04
2022-10-28T10:14:22.000Z,996.06
2022-10-28T10:15:21.928Z,996.12
2022-10-28T10:16:21.872Z,996.11
2022-10-28T10:17:21.782Z,996.15
2022-10-28T10:18:21.909Z,996.13
2022-10-28T10:19:21.635Z,996.10
2022-10-28T10:20:21.564Z,996.08
2022-10-28T10:21:21.489Z,996.10
2022-10-28T10:22:21.418Z,996.13
2022-10-28T10:23:21.446Z,996.07
2022-10-28T10:24:21.279Z,996.07
2022-10-28T10:25:21.200Z,996.11
2022-10-28T10:26:21.131Z,996.10
2022-10-28T10:27:21.056Z,996.14
2022-10-28T10:28:20.984Z,996.09
2022-10-28T10:29:20.909Z,996.12
2022-10-28T10:30:20.839Z,996.18
2022-10-28T10:31:20.765Z,996.15
2022-10-28T10:32:20.709Z,996.18
2022-10-28T10:33:20.621Z,996.11
2022-10-28T10:34:20.546Z,996.12
2022-10-28T10:35:20.470Z,996.10
2022-10-28T10:36:20.401Z,996.11
2022-10-28T10:37:23.554Z,996.08
2022-10-28T10:38:20.276Z,996.10
2022-10-28T10:39:20.183Z,996.05
2022-10-28T10:40:20.112Z,995.99
2022-10-28T10:41:20.037Z,996.01
2022-10-28T10:42:19.966Z,996.02
2022-10-28T10:43:19.892Z,996.03
2022-10-28T10:44:19.822Z,996.03
2022-10-28T10:45:19.743Z,996.04
2022-10-28T10:46:19.673Z,996.02
2022-10-28T10:47:19.601Z,996.01
2022-10-28T10:48:19.553Z,996.04
2022-10-28T10:49:19.454Z,996.04
2022-10-28T10:50:19.444Z,996.04
2022-10-28T10:51:19.314Z,996.02
2022-10-28T10:52:19.246Z,996.07
2022-10-28T10:53:19.166Z,996.03
2022-10-28T10:54:19.094Z,996.01
2022-10-28T10:55:19.024Z,995.97
2022-10-28T10:56:18.949Z,995.94
2022-10-28T10:57:18.878Z,995.91
2022-10-28T10:58:18.806Z,995.88
2022-10-28T10:59:18.730Z,995.90
2022-10-28T11:00:18.659Z,995.91
2022-10-28T11:01:18.723Z,995.91
2022-10-28T11:02:18.691Z,995.90
2022-10-28T11:03:18.442Z,995.91
2022-10-28T11:04:18.394Z,995.87
2022-10-28T11:05:21.644Z,995.88
2022-10-28T11:06:23.436Z,995.87
2022-10-28T11:07:18.159Z,995.90
2022-10-28T11:08:18.085Z,995.92
2022-10-28T11:22:32.073Z,995.75
2022-10-28T11:23:31.982Z,995.77
2022-10-28T11:24:31.913Z,995.76
2022-10-28T11:25:31.891Z,995.77
2022-10-28T11:26:31.770Z,995.77
2022-10-28T11:27:31.699Z,995.78
2022-10-28T11:28:31.630Z,995.75
2022-10-28T11:29:31.558Z,995.78
2022-10-28T11:30:31.523Z,995.79
2022-10-28T11:31:31.418Z,995.76
2022-10-28T11:32:31.348Z,995.76
2022-10-28T11:33:31.458Z,995.72
2022-10-28T11:54:12.666Z,995.64
2022-10-28T11:55:12.573Z,995.65
2022-10-28T11:56:12.512Z,995.64
2022-10-28T11:57:12.437Z,995.62
2022-10-28T11:59:12.300Z,995.65
2022-10-28T12:00:12.238Z,995.62
2022-10-28T12:01:12.218Z,995.67
2022-10-28T12:02:12.268Z,995.59
2022-10-28T12:03:12.077Z,995.61
2022-10-28T12:04:11.968Z,995.54
2022-10-28T12:05:11.899Z,995.58
2022-10-28T12:06:11.834Z,995.59
2022-10-28T12:07:11.768Z,995.60
2022-10-28T12:08:11.701Z,995.56
2022-10-28T12:09:11.641Z,995.62
2022-10-28T12:10:11.611Z,995.60
2022-10-28T12:11:11.604Z,995.52
2022-10-28T12:12:11.444Z,995.52
2022-10-28T12:13:11.374Z,995.50
2022-10-28T12:14:11.311Z,995.52
2022-10-28T12:15:11.250Z,995.45
2022-10-28T12:16:11.184Z,995.43
2022-10-28T12:17:14.749Z,995.39
2022-10-28T12:18:11.058Z,995.46
2022-10-28T12:19:10.990Z,995.41
2022-10-28T12:20:10.927Z,995.40
2022-10-28T12:21:11.001Z,995.37
2022-10-28T12:22:10.800Z,995.36
2022-10-28T12:23:10.986Z,995.39
2022-10-28T12:24:10.670Z,995.41
2022-10-28T12:25:11.136Z,995.38
2022-10-28T12:26:10.561Z,995.47
2022-10-28T12:27:13.910Z,995.36
2022-10-28T12:28:10.525Z,995.35
2022-10-28T12:29:10.346Z,995.37
2022-10-28T12:30:10.282Z,995.26
2022-10-28T12:31:10.219Z,995.23
2022-10-28T12:32:10.156Z,995.21
2022-10-28T12:33:10.090Z,995.13
2022-10-28T12:34:10.030Z,995.06
2022-10-28T12:35:09.961Z,995.13
2022-10-28T12:36:09.900Z,995.06
2022-10-28T12:37:09.836Z,995.11
2022-10-28T12:38:09.766Z,994.98
2022-10-28T12:39:09.700Z,995.03
2022-10-28T12:40:09.647Z,994.95
2022-10-28T12:41:09.570Z,994.91
2022-10-28T12:42:09.566Z,994.95
2022-10-28T12:43:09.447Z,994.85
2022-10-28T12:44:09.376Z,994.97
2022-10-28T12:45:09.305Z,994.94
2022-10-28T12:46:09.241Z,994.95
2022-10-28T12:47:09.175Z,994.98
2022-10-28T12:48:09.112Z,994.93
2022-10-28T12:49:09.044Z,994.99
2022-10-28T12:50:08.979Z,995.01
2022-10-28T12:51:08.912Z,994.99
2022-10-28T12:52:08.847Z,994.99
2022-10-28T12:53:11.400Z,994.99
2022-10-28T14:50:33.098Z,995.01
2022-10-28T14:51:33.009Z,994.99
2022-10-28T14:52:32.939Z,994.93
2022-10-28T14:53:32.871Z,994.97
2022-10-28T14:54:36.597Z,994.94
2022-10-28T14:55:32.723Z,994.94
2022-10-28T14:56:32.653Z,994.91
2022-10-28T14:57:34.007Z,994.92
2022-10-28T14:58:32.509Z,994.89
2022-10-28T14:59:32.437Z,994.93
2022-10-28T15:00:32.367Z,994.93
2022-10-28T15:01:32.595Z,994.90
2022-10-28T15:02:32.568Z,994.98
2022-10-28T15:03:32.147Z,994.96
2022-10-28T15:04:32.080Z,994.96
2022-10-28T15:05:32.008Z,994.91
2022-10-28T15:06:31.962Z,994.91
2022-10-28T15:07:37.966Z,994.81
2022-10-28T15:08:31.791Z,994.83
2022-10-28T15:09:31.719Z,994.84
2022-10-28T15:10:31.644Z,994.75
2022-10-28T15:11:31.571Z,994.73
2022-10-28T15:12:31.503Z,994.77
2022-10-28T15:13:31.427Z,994.77
2022-10-28T15:14:31.357Z,994.75
2022-10-28T15:15:31.281Z,994.72
2022-10-28T15:16:31.211Z,994.74
2022-10-28T15:17:31.173Z,994.69
2022-10-28T15:18:31.067Z,994.72
2022-10-28T15:19:30.993Z,994.73
2022-10-28T15:20:30.923Z,994.69
2022-10-28T15:21:30.852Z,994.70
2022-10-28T15:22:30.831Z,994.67
2022-10-28T15:23:30.776Z,994.68
2022-10-28T15:24:30.783Z,994.67
2022-10-28T15:25:30.560Z,994.70
2022-10-28T15:26:30.487Z,994.66
2022-10-28T15:27:30.413Z,994.66
2022-10-28T15:28:30.342Z,994.60
2022-10-28T15:29:30.273Z,994.63
2022-10-28T15:30:30.197Z,994.67
2022-10-28T15:31:30.125Z,994.69
2022-10-28T15:32:30.054Z,994.68
2022-10-28T15:33:29.982Z,994.73
2022-10-28T15:34:29.910Z,994.75
2022-10-28T15:35:29.931Z,994.74
2022-10-28T15:36:29.801Z,994.80
2022-10-28T15:37:29.692Z,994.81
2022-10-28T15:38:29.635Z,994.85
2022-10-28T15:39:29.544Z,994.91
2022-10-28T15:40:29.479Z,994.89
2022-10-28T15:41:29.399Z,994.88
2022-10-28T15:42:29.346Z,994.85
2022-10-28T15:43:29.252Z,994.82
2022-10-28T15:44:29.181Z,994.85
2022-10-28T15:45:29.108Z,994.90
2022-10-28T15:46:29.033Z,994.91
2022-10-28T15:47:28.963Z,994.84
2022-10-28T15:48:28.891Z,994.88
2022-10-28T15:49:28.817Z,994.85
2022-10-28T15:50:28.794Z,994.89
2022-10-28T15:51:28.672Z,994.86
2022-10-28T15:52:28.598Z,994.89
2022-10-28T15:53:28.525Z,994.88
2022-10-28T15:54:28.476Z,994.83
2022-10-28T15:55:35.815Z,994.95
2022-10-28T15:56:28.304Z,994.95
2022-10-28T15:57:28.234Z,994.95
2022-10-28T15:58:28.157Z,994.97
2022-10-28T15:59:28.084Z,994.97
2022-10-28T16:00:28.010Z,995.00
2022-10-28T16:01:28.076Z,994.98
2022-10-28T16:02:28.140Z,994.94
2022-10-28T16:03:27.794Z,994.98
2022-10-28T16:04:27.719Z,994.92
2022-10-28T16:05:27.824Z,994.80
2022-10-28T16:06:27.568Z,994.88
2022-10-28T16:07:27.495Z,994.91
2022-10-28T16:08:27.420Z,994.99
2022-10-28T16:09:27.359Z,994.95
2022-10-28T16:10:27.291Z,994.92
2022-10-28T16:11:27.201Z,994.97
2022-10-28T16:12:27.129Z,994.91
2022-10-28T16:13:27.052Z,994.88
2022-10-28T16:14:26.979Z,994.92
2022-10-28T16:15:26.914Z,994.96
2022-10-28T16:16:26.833Z,994.96
2022-10-28T16:17:26.907Z,995.00
2022-10-28T16:18:26.702Z,995.00
2022-10-28T16:19:26.609Z,994.98
2022-10-28T16:20:26.633Z,994.99
2022-10-28T16:21:26.464Z,995.00
2022-10-28T16:22:26.387Z,994.99
2022-10-28T16:23:26.315Z,995.01
2022-10-28T16:24:26.490Z,995.02
2022-10-28T16:25:26.165Z,995.07
2022-10-28T16:26:26.110Z,995.02
2022-10-28T16:27:26.017Z,995.03
2022-10-28T16:28:25.943Z,995.05
2022-10-28T16:29:25.873Z,995.00
2022-10-28T16:30:25.800Z,995.02
2022-10-28T16:31:25.720Z,995.06
2022-10-28T16:32:25.900Z,995.06
2022-10-28T16:34:53.239Z,995.15
2022-10-28T16:35:53.164Z,995.12
2022-10-28T16:36:53.095Z,995.10
2022-10-28T16:37:55.366Z,995.12
2022-10-28T16:38:52.941Z,995.12
2022-10-28T16:39:52.869Z,995.15
2022-10-28T16:40:52.808Z,995.20
2022-10-28T16:41:52.739Z,995.19
2022-10-28T16:42:53.039Z,995.12
2022-10-28T16:43:52.572Z,995.18
2022-10-28T16:44:52.496Z,995.22
2022-10-28T16:45:52.424Z,995.23
2022-10-28T16:46:52.454Z,995.23
2022-10-28T16:47:52.630Z,995.25
2022-10-28T16:48:52.199Z,995.21
2022-10-28T16:49:56.123Z,995.24
2022-10-28T16:50:52.048Z,995.24
2022-10-28T16:51:51.976Z,995.27
2022-10-28T16:52:51.899Z,995.32
2022-10-28T16:53:51.874Z,995.30
2022-10-28T16:54:51.750Z,995.33
2022-10-28T16:55:51.677Z,995.30
2022-10-28T16:56:51.602Z,995.32
2022-10-28T16:57:51.854Z,995.35
2022-10-28T16:58:51.450Z,995.35
2022-10-28T16:59:51.379Z,995.35
2022-10-28T17:00:51.301Z,995.37
2022-10-28T17:01:51.355Z,995.40
2022-10-28T17:02:51.172Z,995.38
2022-10-28T17:03:51.290Z,995.39
2022-10-28T17:04:51.011Z,995.38
2022-10-28T17:05:50.934Z,995.45
2022-10-28T17:06:50.851Z,995.40
2022-10-28T17:07:50.779Z,995.43
2022-10-28T17:09:02.960Z,995.45
2022-10-28T17:09:50.627Z,995.45
2022-10-28T17:10:50.550Z,995.41
2022-10-28T17:11:50.477Z,995.46
2022-10-28T17:12:50.402Z,995.41
2022-10-28T17:13:50.343Z,995.38
2022-10-28T17:14:50.252Z,995.39
2022-10-28T17:15:50.173Z,995.39
2022-10-28T17:16:50.099Z,995.37
2022-10-28T17:17:50.027Z,995.38
2022-10-28T17:18:49.952Z,995.36
2022-10-28T17:19:49.874Z,995.34
2022-10-28T17:20:49.799Z,995.31
2022-10-28T17:21:49.741Z,995.30
2022-10-28T17:22:49.664Z,995.32
2022-10-28T17:23:49.574Z,995.33
2022-10-28T17:24:49.496Z,995.34
2022-10-28T17:25:49.424Z,995.38
2022-10-28T17:26:49.350Z,995.38
2022-10-28T17:27:49.273Z,995.39
2022-10-28T17:28:49.197Z,995.41
2022-10-28T17:29:49.216Z,995.46
2022-10-28T17:30:49.296Z,995.49
2022-10-28T17:31:48.970Z,995.45
2022-10-28T17:32:48.898Z,995.50
2022-10-28T17:33:48.818Z,995.49
2022-10-28T17:34:48.744Z,995.40
2022-10-28T17:35:48.667Z,995.43
2022-10-28T17:36:48.593Z,995.40
2022-10-28T17:37:48.539Z,995.40
2022-10-28T17:38:48.445Z,995.43
2022-10-28T17:39:48.445Z,995.44
2022-10-28T17:40:48.293Z,995.45
2022-10-28T17:41:48.216Z,995.47
2022-10-28T17:42:48.140Z,995.46
2022-10-28T17:43:48.069Z,995.53
2022-10-28T17:44:47.991Z,995.56
2022-10-28T17:45:47.931Z,995.52
2022-10-28T17:46:47.839Z,995.56
2022-10-28T17:47:47.914Z,995.59
2022-10-28T17:48:47.689Z,995.57
2022-10-28T17:49:47.610Z,995.58
2022-10-28T17:50:47.538Z,995.56
2022-10-28T17:51:47.461Z,995.59
2022-10-28T17:52:47.386Z,995.59
2022-10-28T17:53:47.317Z,995.54
2022-10-28T17:54:47.237Z,995.55
2022-10-28T17:55:47.225Z,995.54
2022-10-28T17:56:47.086Z,995.55
2022-10-28T17:57:47.006Z,995.56
2022-10-28T17:58:46.942Z,995.56
2022-10-28T17:59:46.879Z,995.60
2022-10-28T18:00:46.856Z,995.59
2022-10-28T18:01:46.896Z,995.60
2022-10-28T18:02:46.824Z,995.57
2022-10-28T18:03:46.556Z,995.58
2022-10-28T18:04:46.481Z,995.63
2022-10-28T18:05:46.401Z,995.62
2022-10-28T18:06:46.333Z,995.65
2022-10-28T18:07:46.250Z,995.64
2022-10-28T18:08:46.233Z,995.68
2022-10-28T18:09:46.099Z,995.71
2022-10-28T18:10:46.023Z,995.71
2022-10-28T18:11:45.947Z,995.75
2022-10-28T18:12:45.871Z,995.77
2022-10-28T18:13:45.795Z,995.78
2022-10-28T18:14:45.727Z,995.81
2022-10-28T18:15:45.645Z,995.83
2022-10-28T18:16:45.769Z,995.86
2022-10-28T18:17:45.510Z,995.85
2022-10-28T18:18:45.418Z,995.87
2022-10-28T18:19:45.364Z,995.91
2022-10-28T18:20:45.265Z,995.89
2022-10-28T18:21:45.191Z,995.91
2022-10-28T18:22:45.113Z,995.92
2022-10-28T18:23:45.043Z,995.90
2022-10-28T18:24:44.962Z,995.93
2022-10-28T18:25:44.885Z,995.88
2022-10-28T18:26:44.829Z,995.88
2022-10-28T18:27:44.744Z,995.87
2022-10-28T18:28:44.657Z,995.88
2022-10-28T18:29:44.584Z,995.89
2022-10-28T18:30:44.508Z,995.82
2022-10-28T18:31:44.441Z,995.87
2022-10-28T18:32:44.353Z,995.89
2022-10-28T18:33:44.298Z,995.88
2022-10-28T18:34:44.325Z,995.86
2022-10-28T18:35:44.125Z,995.90
2022-10-28T18:36:44.052Z,995.90
2022-10-28T18:37:44.203Z,995.92
2022-10-28T18:38:44.005Z,995.89
2022-10-28T18:39:43.824Z,995.93
2022-10-28T18:40:43.748Z,995.90
2022-10-28T18:41:43.672Z,995.91
2022-10-28T18:42:43.597Z,995.93
2022-10-28T18:43:43.521Z,995.92
2022-10-28T18:44:43.443Z,995.97
2022-10-28T18:45:43.368Z,995.97
2022-10-28T18:46:43.298Z,995.95
2022-10-28T18:47:43.214Z,995.97
2022-10-28T18:48:43.141Z,995.97
2022-10-28T18:49:43.083Z,995.96
2022-10-28T18:50:45.641Z,995.99
2022-10-28T18:51:42.910Z,995.97
2022-10-28T18:52:42.840Z,995.98
2022-10-28T18:53:42.758Z,995.96
2022-10-28T18:54:42.683Z,995.93
2022-10-28T18:55:42.610Z,995.95
2022-10-28T18:56:46.269Z,995.91
2022-10-28T18:57:42.455Z,995.92
2022-10-28T18:58:42.383Z,995.94
2022-10-28T19:00:12.419Z,996.00
2022-10-28T19:00:42.230Z,995.98
2022-10-28T19:01:42.287Z,995.95
2022-10-28T19:02:47.271Z,995.98
2022-10-28T19:03:42.001Z,995.96
2022-10-28T19:04:41.923Z,995.96
2022-10-28T19:05:41.872Z,995.96
2022-10-28T19:06:41.773Z,995.94
2022-10-28T19:07:41.696Z,995.95
2022-10-28T19:08:41.620Z,995.97
2022-10-28T19:09:41.542Z,995.98
2022-10-28T19:10:41.469Z,995.95
2022-10-28T19:11:41.391Z,995.97
2022-10-28T19:12:44.942Z,995.99
2022-10-28T19:13:41.240Z,995.98
2022-10-28T19:14:41.167Z,995.95
2022-10-28T19:15:41.086Z,995.93
2022-10-28T19:16:41.009Z,995.95
2022-10-28T19:17:40.955Z,995.96
2022-10-28T19:18:40.862Z,995.89
2022-10-28T19:19:40.787Z,995.91
2022-10-28T19:20:40.711Z,995.93
2022-10-28T19:21:40.648Z,995.91
2022-10-28T19:22:40.564Z,995.89
2022-10-28T19:23:40.477Z,995.88
2022-10-28T19:24:40.406Z,995.90
2022-10-28T19:25:40.328Z,995.90
2022-10-28T19:26:40.252Z,995.90
2022-10-28T19:27:40.177Z,995.88
2022-10-28T19:28:40.217Z,995.85
2022-10-28T19:29:40.033Z,995.86
2022-10-28T19:30:39.951Z,995.85
2022-10-28T19:31:39.874Z,995.86
2022-10-28T19:32:39.796Z,995.90
2022-10-28T19:33:39.723Z,995.87
2022-10-28T19:34:39.648Z,995.92
2022-10-28T19:35:39.628Z,995.93
2022-10-28T19:36:39.493Z,995.96
2022-10-28T19:37:39.440Z,995.95
2022-10-28T19:38:39.346Z,995.96
2022-10-28T19:39:39.262Z,995.97
2022-10-28T19:40:39.192Z,995.94
2022-10-28T19:41:39.112Z,995.97
2022-10-28T19:42:39.136Z,995.99
2022-10-28T19:43:38.964Z,995.99
2022-10-28T19:44:38.886Z,995.96
2022-10-28T19:45:38.812Z,996.03
2022-10-28T19:46:38.733Z,996.01
2022-10-28T19:47:38.660Z,995.98
2022-10-28T19:48:38.583Z,995.99
2022-10-28T19:49:43.459Z,996.00
2022-10-28T19:50:38.435Z,995.96
2022-10-28T19:51:38.371Z,995.97
2022-10-28T19:52:38.281Z,996.00
2022-10-28T19:53:38.219Z,995.98
2022-10-28T19:54:38.126Z,995.99
2022-10-28T19:55:38.050Z,995.99
2022-10-28T19:56:37.973Z,996.00
2022-10-28T19:57:37.899Z,996.01
2022-10-28T19:58:37.823Z,996.04
2022-10-28T19:59:37.748Z,996.05
2022-10-28T20:00:37.684Z,996.06
2022-10-28T20:01:37.798Z,996.09
2022-10-28T20:02:37.637Z,996.13
2022-10-28T20:03:39.232Z,996.13
2022-10-28T20:04:37.379Z,996.15
2022-10-28T20:05:37.298Z,996.21
2022-10-28T20:06:37.222Z,996.19
2022-10-28T20:07:37.142Z,996.23
2022-10-28T20:08:37.067Z,996.23
2022-10-28T20:09:37.007Z,996.30
2022-10-28T20:10:36.912Z,996.27
2022-10-28T20:11:36.835Z,996.32
2022-10-28T20:12:36.760Z,996.26
2022-10-28T20:13:36.682Z,996.28
2022-10-28T20:14:36.719Z,996.27